Time;durP1;ratioP1;P1;durP2;ratioP2;P2;SDS_P1;SDS_P2;PMS_P1;PMS_P2;Temp;Humidity;BMP_temperature;BMP_pressure;BME280_temperature;BME280_humidity;BME280_pressure;Samples;Min_cycle;Max_cycle;Signal;HPM_P1;HPM_P2
2023/01/02 00:00:57;;;;;;;;;;;;;;;13.21;59.48;100131.50;4453913;32;34383;-84
2023/01/02 00:03:24;;;;;;;;;;;;;;;13.97;56.67;100135.37;4466777;32;33696;-86
2023/01/02 00:05:53;;;;;;;;;;;;;;;13.72;57.85;100128.94;4458960;32;34345;-86
2023/01/02 00:08:20;;;;;;;;;;;;;;;12.96;60.07;100136.28;4454744;32;35129;-82
2023/01/02 00:10:48;;;;;;;;;;;;;;;13.51;58.17;100129.44;4465473;32;34523;-91
2023/01/02 00:13:19;;;;;;;;;;;;;;;13.08;59.67;100131.31;4463928;32;34258;-83
2023/01/02 00:15:46;;;;;;;;;;;;;;;13.42;58.90;100124.09;4465247;32;33875;-81
2023/01/02 00:18:13;;;;;;;;;;;;;;;12.87;60.80;100125.69;4460666;32;34061;-82
2023/01/02 00:20:41;;;;;;;;;;;;;;;12.94;60.18;100124.97;4464751;32;35100;-90
2023/01/02 00:23:08;;;;;;;;;;;;;;;12.93;60.42;100125.81;4460557;32;34202;-89
2023/01/02 00:25:36;;;;;;;;;;;;;;;13.37;59.32;100123.13;4457153;32;34420;-90
2023/01/02 00:28:03;;;;;;;;;;;;;;;13.33;59.06;100113.50;4460348;32;34462;-88
2023/01/02 00:30:30;;;;;;;;;;;;;;;12.97;60.31;100119.81;4460559;32;35293;-83
2023/01/02 00:33:05;;;;;;;;;;;;;;;12.24;62.44;100124.44;4459151;32;33797;-84
2023/01/02 00:35:32;;;;;;;;;;;;;;;12.89;60.65;100127.47;4467306;32;34215;-92
2023/01/02 00:37:59;;;;;;;;;;;;;;;13.40;58.44;100120.59;4467327;32;35363;-86
2023/01/02 00:40:27;;;;;;;;;;;;;;;12.76;61.23;100140.22;4467763;32;34165;-92
2023/01/02 00:42:54;;;;;;;;;;;;;;;12.64;61.41;100133.91;4465974;32;34639;-92
2023/01/02 00:45:21;;;;;;;;;;;;;;;12.80;61.02;100136.81;4478112;32;34080;-92
2023/01/02 00:47:49;;;;;;;;;;;;;;;13.07;60.41;100126.94;4470735;32;35098;-83
2023/01/02 00:50:16;;;;;;;;;;;;;;;12.64;61.23;100126.13;4467613;32;33817;-82
2023/01/02 00:52:44;;;;;;;;;;;;;;;12.64;61.31;100138.25;4469283;32;33513;-93
2023/01/02 00:55:11;;;;;;;;;;;;;;;12.85;60.70;100132.59;4475046;32;33532;-83
2023/01/02 00:57:40;;;;;;;;;;;;;;;12.15;62.88;100125.09;4467338;32;34136;-91
2023/01/02 01:00:07;;;;;;;;;;;;;;;11.89;64.11;100141.84;4468436;32;34479;-86
2023/01/02 01:02:35;;;;;;;;;;;;;;;12.91;60.64;100140.50;4466662;32;33518;-85
2023/01/02 01:05:03;;;;;;;;;;;;;;;12.60;61.87;100132.09;4465290;32;34739;-90
2023/01/02 01:07:30;;;;;;;;;;;;;;;12.64;61.49;100130.44;4465528;32;34530;-90
2023/01/02 01:09:58;;;;;;;;;;;;;;;12.79;61.23;100124.66;4465471;32;34231;-88
2023/01/02 01:12:25;;;;;;;;;;;;;;;12.93;60.87;100133.62;4465697;32;33477;-92
2023/01/02 01:14:52;;;;;;;;;;;;;;;12.55;61.70;100127.69;4470862;32;35779;-91
2023/01/02 01:17:19;;;;;;;;;;;;;;;12.84;60.75;100123.03;4465615;32;34085;-93
2023/01/02 01:19:46;;;;;;;;;;;;;;;13.27;59.24;100123.84;4465572;32;34142;-93
2023/01/02 01:22:14;;;;;;;;;;;;;;;13.52;58.49;100125.13;4465743;32;34415;-91
2023/01/02 01:24:41;;;;;;;;;;;;;;;13.74;57.60;100128.94;4465219;32;34317;-93
2023/01/02 01:27:09;;;;;;;;;;;;;;;13.20;59.56;100137.56;4465169;32;35253;-92
2023/01/02 01:29:36;;;;;;;;;;;;;;;13.36;58.96;100124.87;4468953;32;34346;-88
2023/01/02 01:32:03;;;;;;;;;;;;;;;12.47;61.70;100126.66;4474276;32;34322;-91
2023/01/02 01:34:30;;;;;;;;;;;;;;;12.72;61.29;100126.28;4470102;32;34905;-86
2023/01/02 01:36:58;;;;;;;;;;;;;;;13.21;59.41;100126.31;4481517;32;33917;-81
2023/01/02 01:39:25;;;;;;;;;;;;;;;12.88;60.19;100115.31;4478201;32;34294;-93
2023/01/02 01:41:52;;;;;;;;;;;;;;;13.26;59.74;100111.66;4467048;32;33246;-82
2023/01/02 01:44:40;;;;;;;;;;;;;;;11.85;63.62;100104.50;4473068;32;34111;-87
2023/01/02 01:47:25;;;;;;;;;;;;;;;12.60;62.20;100102.63;4467431;32;34602;-91
2023/01/02 01:49:58;;;;;;;;;;;;;;;12.36;62.93;100087.41;4459355;32;34530;-92
2023/01/02 01:52:32;;;;;;;;;;;;;;;13.12;60.24;100086.25;4467112;32;32968;-91
2023/01/02 01:55:01;;;;;;;;;;;;;;;13.12;60.10;100078.44;4465376;32;35049;-92
2023/01/02 01:57:44;;;;;;;;;;;;;;;13.13;59.73;100072.38;4449968;32;33942;-86
2023/01/02 02:00:11;;;;;;;;;;;;;;;13.02;60.25;100075.63;4452824;32;34553;-82
2023/01/02 02:02:40;;;;;;;;;;;;;;;12.71;61.09;100079.41;4467545;32;34351;-95
2023/01/02 02:05:08;;;;;;;;;;;;;;;13.50;58.67;100066.91;4453829;32;34057;-83
2023/01/02 02:07:35;;;;;;;;;;;;;;;12.93;60.17;100081.56;4467411;32;34046;-82
2023/01/02 02:10:04;;;;;;;;;;;;;;;12.76;61.02;100078.63;4452723;32;35123;-83
2023/01/02 02:12:34;;;;;;;;;;;;;;;13.05;59.75;100060.94;4455927;32;34110;-82
2023/01/02 02:15:02;;;;;;;;;;;;;;;12.95;60.36;100071.16;4472332;32;34323;-83
2023/01/02 02:17:50;;;;;;;;;;;;;;;13.25;58.93;100066.50;4452996;32;35317;-84
2023/01/02 02:20:39;;;;;;;;;;;;;;;12.82;60.14;100063.16;4466696;32;34048;-92
2023/01/02 02:23:14;;;;;;;;;;;;;;;11.72;64.34;100067.81;4466116;32;33314;-93
2023/01/02 02:25:46;;;;;;;;;;;;;;;11.76;64.64;100062.72;4467449;32;34261;-90
2023/01/02 02:28:25;;;;;;;;;;;;;;;12.07;63.00;100051.28;4454334;32;34644;-82
2023/01/02 02:31:01;;;;;;;;;;;;;;;12.41;62.13;100051.97;4472121;32;34489;-91
2023/01/02 02:34:01;;;;;;;;;;;;;;;12.13;62.76;100043.63;4451901;32;33302;-93
2023/01/02 02:36:33;;;;;;;;;;;;;;;12.05;63.03;100045.19;4449972;32;34204;-90
2023/01/02 02:39:10;;;;;;;;;;;;;;;12.91;60.15;100044.22;4453276;32;34162;-96
2023/01/02 02:41:37;;;;;;;;;;;;;;;13.04;59.54;100046.19;4471097;32;35313;-89
2023/01/02 02:44:18;;;;;;;;;;;;;;;13.18;59.28;100055.94;4482098;32;33681;-83
2023/01/02 02:47:23;;;;;;;;;;;;;;;12.90;59.90;100048.53;4470139;32;35184;-83
2023/01/02 02:49:57;;;;;;;;;;;;;;;12.87;60.08;100055.41;4435014;32;34448;-83
2023/01/02 02:52:26;;;;;;;;;;;;;;;12.44;61.47;100053.75;4476538;32;33748;-94
2023/01/02 02:54:59;;;;;;;;;;;;;;;11.65;63.74;100048.62;4470281;32;33222;-94
2023/01/02 02:57:27;;;;;;;;;;;;;;;11.64;64.50;100049.47;4484504;32;34209;-96
2023/01/02 02:59:54;;;;;;;;;;;;;;;11.12;66.07;100056.00;4464016;32;33918;-93
2023/01/02 03:02:21;;;;;;;;;;;;;;;11.32;65.78;100048.69;4454103;32;34339;-96
2023/01/02 03:04:51;;;;;;;;;;;;;;;10.93;66.79;100049.47;4468604;32;34461;-92
2023/01/02 03:07:21;;;;;;;;;;;;;;;11.11;66.98;100044.75;4467467;32;34150;-82
2023/01/02 03:09:48;;;;;;;;;;;;;;;11.55;65.10;100037.13;4468655;32;34290;-87
2023/01/02 03:12:23;;;;;;;;;;;;;;;11.36;66.23;100035.81;4469001;32;35342;-86
2023/01/02 03:15:00;;;;;;;;;;;;;;;12.14;63.66;100036.69;4468393;32;33271;-93
2023/01/02 03:17:31;;;;;;;;;;;;;;;12.21;63.34;100037.72;4463113;32;35173;-90
2023/01/02 03:20:00;;;;;;;;;;;;;;;12.33;62.91;100037.94;4470021;32;35254;-93
2023/01/02 03:22:29;;;;;;;;;;;;;;;11.69;64.79;100037.44;4470401;32;35075;-90
2023/01/02 03:24:56;;;;;;;;;;;;;;;12.30;63.35;100045.69;4470718;32;33647;-93
2023/01/02 03:27:25;;;;;;;;;;;;;;;11.85;64.69;100042.16;4470687;32;34908;-95
2023/01/02 03:30:01;;;;;;;;;;;;;;;11.68;64.96;100028.78;4470376;32;33864;-82
2023/01/02 03:32:30;;;;;;;;;;;;;;;11.53;66.34;100030.16;4471636;32;34533;-83
2023/01/02 03:34:58;;;;;;;;;;;;;;;11.46;66.34;100036.94;4454785;32;33206;-83
2023/01/02 03:37:28;;;;;;;;;;;;;;;11.34;66.62;100031.47;4454419;32;34084;-96
2023/01/02 03:39:57;;;;;;;;;;;;;;;11.28;66.85;100028.69;4454998;32;33967;-94
2023/01/02 03:42:26;;;;;;;;;;;;;;;11.71;65.26;100033.19;4455011;32;34384;-94
2023/01/02 03:44:56;;;;;;;;;;;;;;;11.55;66.39;100039.72;4455024;32;34508;-83
2023/01/02 03:47:26;;;;;;;;;;;;;;;11.64;65.57;100037.34;4468690;32;35104;-95
2023/01/02 03:49:56;;;;;;;;;;;;;;;11.87;64.92;100043.06;4468147;32;34402;-83
2023/01/02 03:52:23;;;;;;;;;;;;;;;11.57;65.35;100037.19;4470047;32;34408;-83
2023/01/02 03:54:52;;;;;;;;;;;;;;;11.16;67.39;100039.69;4467890;32;33070;-93
2023/01/02 03:57:38;;;;;;;;;;;;;;;11.26;67.62;100046.84;4475277;32;33743;-84
2023/01/02 04:00:07;;;;;;;;;;;;;;;11.12;68.09;100045.62;4483881;32;34189;-93
2023/01/02 04:02:47;;;;;;;;;;;;;;;11.52;66.50;100051.78;4469685;32;34094;-95
2023/01/02 04:05:41;;;;;;;;;;;;;;;12.02;64.98;100047.72;4484882;32;33196;-82
2023/01/02 04:08:25;;;;;;;;;;;;;;;11.53;65.78;100043.16;4482661;32;35119;-85
2023/01/02 04:10:54;;;;;;;;;;;;;;;12.39;63.12;100040.69;4471060;32;35160;-83
2023/01/02 04:13:28;;;;;;;;;;;;;;;11.44;65.85;100041.22;4472043;32;34522;-84
2023/01/02 04:15:55;;;;;;;;;;;;;;;11.82;64.85;100048.97;4464136;32;34465;-96
2023/01/02 04:18:29;;;;;;;;;;;;;;;11.24;66.91;100047.66;4471235;32;33741;-86
2023/01/02 04:20:58;;;;;;;;;;;;;;;11.00;67.72;100043.63;4455499;32;35348;-93
2023/01/02 04:23:30;;;;;;;;;;;;;;;10.89;68.17;100051.13;4468437;32;34194;-91
2023/01/02 04:25:59;;;;;;;;;;;;;;;10.86;68.53;100047.56;4454461;32;34427;-82
2023/01/02 04:28:30;;;;;;;;;;;;;;;11.14;67.06;100047.44;4454102;32;34238;-83
2023/01/02 04:31:14;;;;;;;;;;;;;;;10.99;67.45;100048.78;4462669;32;35249;-84
2023/01/02 04:33:49;;;;;;;;;;;;;;;11.36;66.36;100059.19;4469245;32;34464;-87
2023/01/02 04:36:17;;;;;;;;;;;;;;;11.41;66.39;100065.38;4469691;32;33608;-82
2023/01/02 04:38:44;;;;;;;;;;;;;;;11.28;66.58;100062.44;4483820;32;35147;-82
2023/01/02 04:41:12;;;;;;;;;;;;;;;11.29;67.04;100059.91;4482853;32;34507;-94
2023/01/02 04:43:40;;;;;;;;;;;;;;;11.40;66.12;100068.84;4469786;32;34142;-83
2023/01/02 04:46:07;;;;;;;;;;;;;;;12.22;63.59;100068.06;4477863;32;33475;-95
2023/01/02 04:48:34;;;;;;;;;;;;;;;12.36;62.60;100061.41;4457615;32;34929;-96
2023/01/02 04:51:02;;;;;;;;;;;;;;;11.74;64.55;100058.31;4482559;32;34999;-84
2023/01/02 04:53:29;;;;;;;;;;;;;;;12.24;62.91;100061.19;4482346;32;34479;-89
2023/01/02 04:55:56;;;;;;;;;;;;;;;11.81;64.25;100052.41;4473152;32;33612;-86
2023/01/02 04:58:25;;;;;;;;;;;;;;;11.76;64.13;100057.53;4483309;32;34337;-90
2023/01/02 05:00:53;;;;;;;;;;;;;;;11.54;64.96;100056.16;4478856;32;33857;-84
2023/01/02 05:03:21;;;;;;;;;;;;;;;12.01;62.64;100069.38;4467813;32;34143;-85
2023/01/02 05:05:48;;;;;;;;;;;;;;;12.08;62.61;100059.97;4484172;32;33878;-91
2023/01/02 05:08:15;;;;;;;;;;;;;;;12.39;61.80;100062.34;4483729;32;34130;-83
2023/01/02 05:10:42;;;;;;;;;;;;;;;11.44;64.44;100059.41;4480672;32;34500;-84
2023/01/02 05:13:10;;;;;;;;;;;;;;;12.03;62.48;100052.06;4467859;32;33782;-84
2023/01/02 05:15:37;;;;;;;;;;;;;;;11.83;63.15;100054.25;4467648;32;32954;-84
2023/01/02 05:18:04;;;;;;;;;;;;;;;12.39;61.62;100059.75;4474528;32;34690;-83
2023/01/02 05:20:32;;;;;;;;;;;;;;;12.05;62.65;100055.59;4482017;32;34035;-82
2023/01/02 05:25:46;;;;;;;;;;;;;;;11.91;63.10;100057.87;4466145;32;33551;-83
2023/01/02 05:28:13;;;;;;;;;;;;;;;12.09;62.62;100049.63;4466866;32;34992;-84
2023/01/02 05:30:40;;;;;;;;;;;;;;;11.12;65.35;100045.62;4467244;32;34270;-86
2023/01/02 05:33:07;;;;;;;;;;;;;;;11.75;63.44;100044.50;4475795;32;34330;-88
2023/01/02 05:35:35;;;;;;;;;;;;;;;11.76;63.19;100054.91;4482737;32;34368;-83
2023/01/02 05:38:02;;;;;;;;;;;;;;;11.45;64.60;100050.75;4467429;32;34880;-83
2023/01/02 05:40:29;;;;;;;;;;;;;;;11.18;65.24;100057.06;4477542;32;34583;-83
2023/01/02 05:42:57;;;;;;;;;;;;;;;11.45;64.19;100056.81;4482783;32;34406;-83
2023/01/02 05:45:24;;;;;;;;;;;;;;;11.21;65.55;100056.22;4482853;32;34038;-84
2023/01/02 05:47:52;;;;;;;;;;;;;;;11.27;64.73;100047.72;4454411;32;35137;-85
2023/01/02 05:50:19;;;;;;;;;;;;;;;11.64;63.60;100050.34;4477002;32;34154;-82
2023/01/02 05:52:46;;;;;;;;;;;;;;;12.02;62.42;100050.31;4471534;32;34358;-82
2023/01/02 05:55:13;;;;;;;;;;;;;;;12.54;60.51;100051.38;4467470;32;33844;-92
2023/01/02 05:57:41;;;;;;;;;;;;;;;12.66;59.70;100054.19;4465837;32;34262;-82
2023/01/02 06:00:08;;;;;;;;;;;;;;;12.07;62.16;100047.81;4465077;32;35277;-83
2023/01/02 06:02:38;;;;;;;;;;;;;;;12.11;61.29;100053.09;4479626;32;35418;-94
2023/01/02 06:05:13;;;;;;;;;;;;;;;11.94;62.05;100062.28;4467065;32;34553;-88
2023/01/02 06:07:41;;;;;;;;;;;;;;;11.45;63.63;100055.94;4476587;32;34323;-92
2023/01/02 06:10:08;;;;;;;;;;;;;;;11.11;64.36;100047.34;4469562;32;34371;-84
2023/01/02 06:12:35;;;;;;;;;;;;;;;11.11;64.51;100049.06;4472736;32;34875;-93
2023/01/02 06:15:02;;;;;;;;;;;;;;;11.82;62.81;100057.66;4469094;32;33130;-93
2023/01/02 06:17:30;;;;;;;;;;;;;;;10.67;65.89;100060.06;4472675;32;34109;-81
2023/01/02 06:19:57;;;;;;;;;;;;;;;11.07;65.25;100058.50;4473875;32;34539;-85
2023/01/02 06:22:24;;;;;;;;;;;;;;;11.17;64.76;100049.19;4469885;32;35180;-95
2023/01/02 06:24:51;;;;;;;;;;;;;;;11.05;64.64;100054.97;4468850;32;33735;-83
2023/01/02 06:27:19;;;;;;;;;;;;;;;11.40;63.91;100047.16;4470347;32;34170;-87
2023/01/02 06:29:46;;;;;;;;;;;;;;;11.20;64.47;100050.16;4475942;32;34191;-82
2023/01/02 06:32:13;;;;;;;;;;;;;;;10.71;65.89;100058.41;4477129;32;34037;-85
2023/01/02 06:34:41;;;;;;;;;;;;;;;10.97;65.13;100051.31;4484583;32;33278;-86
2023/01/02 06:37:08;;;;;;;;;;;;;;;10.25;67.27;100051.97;4478470;32;33680;-87
2023/01/02 06:39:36;;;;;;;;;;;;;;;10.30;67.17;100059.88;4474242;32;34293;-84
2023/01/02 06:42:05;;;;;;;;;;;;;;;11.06;65.01;100059.34;4468065;32;34503;-83
2023/01/02 06:44:32;;;;;;;;;;;;;;;10.79;65.64;100061.22;4474880;32;33701;-84
2023/01/02 06:46:59;;;;;;;;;;;;;;;10.94;64.75;100066.78;4468553;32;34011;-92
2023/01/02 06:49:27;;;;;;;;;;;;;;;10.83;64.99;100061.31;4468524;32;35107;-83
2023/01/02 06:51:54;;;;;;;;;;;;;;;11.69;62.62;100050.44;4469144;32;35196;-82
2023/01/02 06:54:21;;;;;;;;;;;;;;;11.72;62.68;100047.91;4468817;32;34291;-93
2023/01/02 06:56:49;;;;;;;;;;;;;;;11.76;62.14;100057.53;4468531;32;34346;-89
2023/01/02 06:59:16;;;;;;;;;;;;;;;12.25;61.03;100060.31;4469804;32;34783;-94
2023/01/02 07:01:43;;;;;;;;;;;;;;;12.13;60.95;100064.41;4470461;32;34622;-83
2023/01/02 07:04:15;;;;;;;;;;;;;;;11.52;62.41;100060.44;4453891;32;32642;-88
2023/01/02 07:06:42;;;;;;;;;;;;;;;11.63;62.07;100071.06;4468786;32;35105;-95
2023/01/02 07:09:09;;;;;;;;;;;;;;;12.38;60.04;100063.19;4467868;32;34273;-84
2023/01/02 07:11:37;;;;;;;;;;;;;;;12.54;59.51;100066.97;4476641;32;35179;-86
2023/01/02 07:14:04;;;;;;;;;;;;;;;12.35;59.89;100076.16;4479549;32;34241;-83
2023/01/02 07:16:31;;;;;;;;;;;;;;;12.14;60.92;100075.69;4483597;32;34044;-86
2023/01/02 07:18:59;;;;;;;;;;;;;;;12.13;60.29;100074.81;4484424;32;34275;-84
2023/01/02 07:21:26;;;;;;;;;;;;;;;12.07;60.99;100076.41;4476662;32;34195;-86
2023/01/02 07:23:53;;;;;;;;;;;;;;;11.61;62.18;100081.44;4468190;32;33580;-83
2023/01/02 07:26:21;;;;;;;;;;;;;;;11.40;63.45;100080.91;4468458;32;33907;-83
2023/01/02 07:28:48;;;;;;;;;;;;;;;10.80;65.21;100084.63;4442317;32;33687;-93
2023/01/02 07:31:16;;;;;;;;;;;;;;;11.43;63.44;100084.47;4467279;32;33318;-83
2023/01/02 07:33:44;;;;;;;;;;;;;;;11.40;63.45;100079.22;4453819;32;34520;-90
2023/01/02 07:36:15;;;;;;;;;;;;;;;11.07;64.23;100087.03;4454734;32;34769;-83
2023/01/02 07:38:42;;;;;;;;;;;;;;;11.34;63.54;100081.66;4467859;32;35104;-94
2023/01/02 07:41:12;;;;;;;;;;;;;;;11.15;64.57;100085.50;4469429;32;34413;-83
2023/01/02 07:43:39;;;;;;;;;;;;;;;11.64;62.95;100073.72;4469944;32;33638;-83
2023/01/02 07:46:07;;;;;;;;;;;;;;;11.59;62.92;100070.16;4468867;32;35130;-83
2023/01/02 07:48:35;;;;;;;;;;;;;;;11.49;63.46;100073.34;4468608;32;34197;-82
2023/01/02 07:51:03;;;;;;;;;;;;;;;12.86;59.24;100069.28;4470173;32;34335;-90
2023/01/02 07:53:31;;;;;;;;;;;;;;;12.23;60.80;100070.66;4467948;32;33301;-92
2023/01/02 07:55:59;;;;;;;;;;;;;;;11.18;63.85;100075.22;4452921;32;33624;-83
2023/01/02 07:58:27;;;;;;;;;;;;;;;11.85;62.20;100078.53;4453044;32;34219;-83
2023/01/02 08:00:54;;;;;;;;;;;;;;;12.22;61.13;100076.72;4468108;32;35200;-82
2023/01/02 08:03:27;;;;;;;;;;;;;;;11.58;62.60;100076.16;4468427;32;33742;-93
2023/01/02 08:06:00;;;;;;;;;;;;;;;11.12;64.22;100084.56;4468829;32;35141;-83
2023/01/02 08:08:28;;;;;;;;;;;;;;;10.56;66.45;100079.62;4453798;32;35214;-94
2023/01/02 08:10:55;;;;;;;;;;;;;;;11.38;64.36;100082.59;4469618;32;34245;-94
2023/01/02 08:13:22;;;;;;;;;;;;;;;11.14;64.50;100075.97;4468721;32;33503;-87
2023/01/02 08:15:49;;;;;;;;;;;;;;;10.92;65.59;100078.88;4469132;32;33955;-95
2023/01/02 08:18:17;;;;;;;;;;;;;;;11.33;64.10;100076.44;4468747;32;35361;-95
2023/01/02 08:20:44;;;;;;;;;;;;;;;10.90;66.00;100075.34;4468597;32;33539;-83
2023/01/02 08:23:13;;;;;;;;;;;;;;;11.02;65.63;100079.97;4468678;32;34490;-83
2023/01/02 08:25:40;;;;;;;;;;;;;;;11.22;64.78;100077.91;4467411;32;34066;-89
2023/01/02 08:28:08;;;;;;;;;;;;;;;11.18;64.64;100083.00;4468779;32;34400;-85
2023/01/02 08:30:41;;;;;;;;;;;;;;;11.03;66.15;100082.62;4465855;32;35320;-86
2023/01/02 08:33:08;;;;;;;;;;;;;;;11.06;66.26;100082.69;4466745;32;33028;-93
2023/01/02 08:35:35;;;;;;;;;;;;;;;10.64;66.90;100083.31;4468345;32;34171;-92
2023/01/02 08:38:05;;;;;;;;;;;;;;;11.64;64.46;100078.91;4468105;32;34358;-83
2023/01/02 08:40:32;;;;;;;;;;;;;;;12.30;62.02;100076.88;4468437;32;34281;-88
2023/01/02 08:42:59;;;;;;;;;;;;;;;12.25;62.06;100083.72;4475077;32;33609;-84
2023/01/02 08:45:27;;;;;;;;;;;;;;;12.28;62.05;100084.66;4468073;32;34035;-94
2023/01/02 08:47:54;;;;;;;;;;;;;;;12.39;61.95;100087.50;4468050;32;35144;-95
2023/01/02 08:50:21;;;;;;;;;;;;;;;12.82;60.65;100089.16;4469498;32;34799;-95
2023/01/02 08:52:49;;;;;;;;;;;;;;;12.61;61.21;100089.66;4468693;32;33763;-94
2023/01/02 08:55:16;;;;;;;;;;;;;;;12.61;61.02;100092.25;4459050;32;34978;-94
2023/01/02 08:57:43;;;;;;;;;;;;;;;12.33;62.19;100093.41;4462390;32;32638;-92
2023/01/02 09:00:11;;;;;;;;;;;;;;;12.77;60.90;100093.44;4462265;32;34560;-94
2023/01/02 09:02:38;;;;;;;;;;;;;;;12.57;61.72;100102.56;4477459;32;33429;-94
2023/01/02 09:05:05;;;;;;;;;;;;;;;12.73;61.08;100099.44;4476607;32;34793;-93
2023/01/02 09:07:33;;;;;;;;;;;;;;;12.33;62.55;100088.22;4463582;32;34492;-85
2023/01/02 09:10:01;;;;;;;;;;;;;;;12.77;61.42;100089.97;4472230;32;34014;-90
2023/01/02 09:12:28;;;;;;;;;;;;;;;12.55;62.13;100084.34;4481266;32;32961;-93
2023/01/02 09:14:55;;;;;;;;;;;;;;;12.54;61.25;100087.78;4468947;32;34153;-89
2023/01/02 09:17:23;;;;;;;;;;;;;;;12.77;60.58;100088.22;4474475;32;33729;-93
2023/01/02 09:19:50;;;;;;;;;;;;;;;12.16;62.63;100081.81;4471601;32;35170;-92
2023/01/02 09:22:18;;;;;;;;;;;;;;;11.14;66.35;100090.69;4480867;32;34647;-84
2023/01/02 09:24:46;;;;;;;;;;;;;;;11.24;66.31;100083.97;4488317;32;35497;-92
2023/01/02 09:27:14;;;;;;;;;;;;;;;11.55;65.53;100085.59;4482519;32;33889;-91
2023/01/02 09:29:41;;;;;;;;;;;;;;;11.46;65.61;100083.66;4480030;32;33883;-94
2023/01/02 09:32:08;;;;;;;;;;;;;;;12.44;63.17;100085.84;4475921;32;33286;-93
2023/01/02 09:34:35;;;;;;;;;;;;;;;12.38;62.91;100078.78;4485203;32;34915;-93
2023/01/02 09:37:03;;;;;;;;;;;;;;;12.22;63.15;100074.13;4483083;32;33813;-84
2023/01/02 09:39:30;;;;;;;;;;;;;;;11.46;65.54;100062.88;4475486;32;33911;-91
2023/01/02 09:42:00;;;;;;;;;;;;;;;12.15;63.67;100062.72;4478721;32;33215;-83
2023/01/02 09:44:27;;;;;;;;;;;;;;;12.35;63.70;100059.62;4483634;32;34703;-88
2023/01/02 09:46:59;;;;;;;;;;;;;;;12.94;61.24;100051.22;4485242;32;34966;-83
2023/01/02 09:49:27;;;;;;;;;;;;;;;12.76;61.49;100054.34;4483895;32;35065;-86
2023/01/02 09:51:54;;;;;;;;;;;;;;;12.11;62.87;100054.81;4454885;32;34426;-90
2023/01/02 09:54:26;;;;;;;;;;;;;;;13.05;60.56;100047.06;4469025;32;34451;-90
2023/01/02 09:57:03;;;;;;;;;;;;;;;11.49;65.13;100046.50;4468897;32;34185;-86
2023/01/02 09:59:35;;;;;;;;;;;;;;;12.12;63.21;100047.09;4468890;32;34637;-92
2023/01/02 10:02:05;;;;;;;;;;;;;;;11.86;64.62;100045.66;4453805;32;32996;-92
2023/01/02 10:04:51;;;;;;;;;;;;;;;10.83;67.27;100037.09;4466701;32;35017;-83
2023/01/02 10:07:19;;;;;;;;;;;;;;;11.13;67.02;100042.19;4472987;32;34054;-83
2023/01/02 10:10:10;;;;;;;;;;;;;;;11.44;66.06;100036.03;4481237;32;34380;-93
2023/01/02 10:12:51;;;;;;;;;;;;;;;11.45;66.32;100035.19;4464686;32;34301;-94
2023/01/02 10:15:23;;;;;;;;;;;;;;;11.48;66.67;100036.94;4469381;32;35233;-84
2023/01/02 10:17:51;;;;;;;;;;;;;;;11.64;65.82;100034.75;4470515;32;35127;-85
2023/01/02 10:20:27;;;;;;;;;;;;;;;11.88;65.07;100030.97;4466883;32;34186;-94
2023/01/02 10:22:56;;;;;;;;;;;;;;;12.38;63.39;100025.91;4462324;32;33559;-84
2023/01/02 10:25:29;;;;;;;;;;;;;;;12.48;62.77;100025.25;4456252;32;34171;-85
2023/01/02 10:28:12;;;;;;;;;;;;;;;11.73;65.59;100023.69;4464434;32;34388;-96
2023/01/02 10:30:40;;;;;;;;;;;;;;;12.16;63.59;100016.84;4466336;32;35179;-94
2023/01/02 10:33:09;;;;;;;;;;;;;;;11.85;65.20;100017.91;4475896;32;34317;-85
2023/01/02 10:35:44;;;;;;;;;;;;;;;12.37;64.16;100013.75;4468507;32;33769;-94
2023/01/02 10:38:12;;;;;;;;;;;;;;;13.10;61.61;100004.62;4462641;32;34048;-95
2023/01/02 10:40:40;;;;;;;;;;;;;;;12.64;62.92;100006.44;4454593;32;35828;-91
2023/01/02 10:43:07;;;;;;;;;;;;;;;13.49;60.16;99997.44;4455479;32;34256;-92
2023/01/02 10:45:34;;;;;;;;;;;;;;;12.64;63.14;99998.66;4470712;32;35070;-91
2023/01/02 10:48:02;;;;;;;;;;;;;;;12.57;63.61;99994.19;4439328;32;34319;-83
2023/01/02 10:50:31;;;;;;;;;;;;;;;13.39;61.14;99983.41;4470609;32;35319;-93
2023/01/02 10:53:06;;;;;;;;;;;;;;;13.34;61.41;99980.75;4456242;32;34489;-87
2023/01/02 10:55:36;;;;;;;;;;;;;;;13.70;60.69;99978.59;4456851;32;33082;-95
2023/01/02 10:58:04;;;;;;;;;;;;;;;14.16;58.49;99973.94;4468246;32;34520;-95
2023/01/02 11:00:34;;;;;;;;;;;;;;;14.16;58.08;99969.59;4467195;32;34296;-89
2023/01/02 11:03:11;;;;;;;;;;;;;;;13.83;59.34;99970.97;4468973;32;33674;-92
2023/01/02 11:05:52;;;;;;;;;;;;;;;14.67;57.12;99967.56;4467323;32;33861;-91
2023/01/02 11:08:20;;;;;;;;;;;;;;;14.67;57.06;99963.22;4466157;32;33863;-90
2023/01/02 11:10:48;;;;;;;;;;;;;;;13.88;59.41;99968.41;4453305;32;35029;-85
2023/01/02 11:13:17;;;;;;;;;;;;;;;14.98;56.16;99953.00;4472125;32;34411;-87
2023/01/02 11:16:04;;;;;;;;;;;;;;;15.25;55.15;99957.56;4469054;32;33745;-94
2023/01/02 11:18:32;;;;;;;;;;;;;;;14.75;56.51;99950.22;4465842;32;34073;-92
2023/01/02 11:21:03;;;;;;;;;;;;;;;14.52;57.59;99943.06;4466639;32;33989;-93
2023/01/02 11:23:35;;;;;;;;;;;;;;;14.45;58.10;99945.56;4451933;32;33520;-82
2023/01/02 11:26:02;;;;;;;;;;;;;;;14.89;56.53;99947.69;4466452;32;34299;-96
2023/01/02 11:28:31;;;;;;;;;;;;;;;14.44;57.85;99949.91;4455217;32;34437;-95
2023/01/02 11:31:00;;;;;;;;;;;;;;;14.87;56.88;99934.66;4469102;32;34405;-95
2023/01/02 11:33:29;;;;;;;;;;;;;;;13.91;58.97;99942.41;4467621;32;33761;-91
2023/01/02 11:35:57;;;;;;;;;;;;;;;13.97;59.13;99937.22;4468708;32;34823;-92
2023/01/02 11:38:39;;;;;;;;;;;;;;;14.83;56.48;99927.66;4454665;32;34256;-85
2023/01/02 11:41:14;;;;;;;;;;;;;;;15.08;55.84;99923.50;4450974;32;34288;-83
2023/01/02 11:43:48;;;;;;;;;;;;;;;14.74;56.60;99914.56;4454965;32;33782;-93
2023/01/02 11:46:28;;;;;;;;;;;;;;;14.58;57.32;99917.03;4475519;32;33832;-84
2023/01/02 11:48:57;;;;;;;;;;;;;;;14.79;56.96;99910.22;4452378;32;34207;-94
2023/01/02 11:51:24;;;;;;;;;;;;;;;14.43;58.31;99913.34;4446076;32;35337;-92
2023/01/02 11:53:52;;;;;;;;;;;;;;;14.73;57.11;99904.94;4468334;32;34533;-92
2023/01/02 11:56:28;;;;;;;;;;;;;;;15.13;56.04;99907.84;4479922;32;32367;-95
2023/01/02 11:59:11;;;;;;;;;;;;;;;15.40;55.45;99897.53;4471227;32;34474;-85
2023/01/02 12:01:42;;;;;;;;;;;;;;;15.80;54.30;99892.53;4474434;32;35147;-83
2023/01/02 12:04:11;;;;;;;;;;;;;;;16.13;53.82;99896.06;4470992;32;33681;-92
2023/01/02 12:06:47;;;;;;;;;;;;;;;16.07;53.37;99888.25;4465448;32;35090;-93
2023/01/02 12:09:38;;;;;;;;;;;;;;;16.28;52.96;99878.66;4468011;32;35196;-90
2023/01/02 12:12:05;;;;;;;;;;;;;;;16.29;52.71;99876.94;4464971;32;34100;-89
2023/01/02 12:14:35;;;;;;;;;;;;;;;16.49;52.50;99871.72;4477669;32;34197;-91
2023/01/02 12:17:05;;;;;;;;;;;;;;;16.26;52.92;99879.53;4469392;32;34002;-87
2023/01/02 12:19:56;;;;;;;;;;;;;;;16.30;52.99;99876.94;4481003;32;35213;-82
2023/01/02 12:22:46;;;;;;;;;;;;;;;16.12;53.58;99876.91;4469960;32;35048;-92
2023/01/02 12:25:20;;;;;;;;;;;;;;;15.95;54.11;99876.00;4469692;32;33812;-82
2023/01/02 12:27:57;;;;;;;;;;;;;;;15.85;54.25;99867.25;4455022;32;34804;-88
2023/01/02 12:30:24;;;;;;;;;;;;;;;16.44;52.49;99871.72;4464443;32;34180;-85
2023/01/02 12:32:58;;;;;;;;;;;;;;;16.88;51.38;99868.22;4455995;32;34198;-90
2023/01/02 12:35:36;;;;;;;;;;;;;;;16.47;52.50;99871.69;4446806;32;33573;-81
2023/01/02 12:38:05;;;;;;;;;;;;;;;16.74;51.54;99867.34;4461099;32;34044;-91
2023/01/02 12:40:52;;;;;;;;;;;;;;;16.82;51.59;99865.63;4462059;32;34590;-84
2023/01/02 12:43:41;;;;;;;;;;;;;;;16.63;52.10;99869.06;4454075;32;34276;-82
2023/01/02 12:46:28;;;;;;;;;;;;;;;16.38;52.64;99868.22;4481125;32;33986;-90
2023/01/02 12:49:07;;;;;;;;;;;;;;;17.00;51.16;99856.84;4481552;32;34185;-91
2023/01/02 12:51:53;;;;;;;;;;;;;;;16.80;51.63;99862.13;4467796;32;35040;-92
2023/01/02 12:54:31;;;;;;;;;;;;;;;17.06;50.85;99850.72;4474523;32;34402;-89
2023/01/02 12:57:15;;;;;;;;;;;;;;;17.51;49.90;99858.41;4469723;32;33615;-84